Latest Weather Observations for Hobart

IDT60901

Issued at 9:35 am EST Wednesday 3 September 2014 (issued every 10 minutes, with the page automatically refreshed every 10 minutes)

About weather observations | Map of Hobart area stations | Latest observations for Hobart area | Other Formats
Station Details ID: 094029 Name: HOBART (ELLERSLIE ROAD) Lat: -42.89 Lon: 147.33 Height: 50.5 m
Data from the previous 72 hours. | See also: Recent months at Hobart
Date/Time
EST
Tmp

°C
App
Tmp
°C
Dew
Point
°C
Rel
Hum
%
Delta-T

°C
Wind Press
QNH
hPa
Press
MSL
hPa
Rain
since
9 am
mm
Dir
 
Spd
km/h
Gust
km/h
Spd
kts
Gust
kts
03/09:30am 11.0 6.4 3.5 60 3.3 N 17 24 9 13 1020.7 1020.8 0.0
03/09:00am 10.4 6.4 2.7 59 3.3 NNW 13 19 7 10 1020.8 1020.9 1.6
03/08:30am 8.6 4.9 2.4 65 2.6 WNW 11 17 6 9 1020.9 1021.0 1.6
03/08:00am 7.1 3.0 2.0 70 2.1 NW 13 19 7 10 1021.0 1021.1 1.6
03/07:30am 6.0 1.4 1.5 73 1.8 NW 15 20 8 11 1020.9 1021.0 1.6
03/07:00am 4.6 0.3 1.3 79 1.3 NW 13 20 7 11 1020.5 1020.6 1.6
03/06:30am 3.7 -0.2 1.1 83 1.0 W 11 17 6 9 1020.3 1020.4 1.6
03/06:00am 3.4 -0.1 1.3 86 0.8 W 9 13 5 7 1020.3 1020.4 1.6
03/05:30am 3.3 1.2 1.5 88 0.7 W 2 6 1 3 1020.1 1020.2 1.6
03/05:00am 4.0 0.9 1.4 83 1.0 WNW 7 11 4 6 1019.9 1020.0 1.6
03/04:30am 4.8 -0.6 1.2 77 1.4 NW 19 28 10 15 1019.8 1019.9 1.6
03/04:00am 5.0 0.3 1.2 76 1.5 NNW 15 26 8 14 1019.8 1019.9 1.6
03/03:30am 5.0 0.8 1.4 77 1.4 NNW 13 17 7 9 1020.0 1020.1 1.6
03/03:00am 5.4 1.1 1.3 75 1.6 WNW 13 20 7 11 1020.2 1020.3 1.6
03/02:30am 5.1 1.2 1.0 75 1.6 NW 11 19 6 10 1020.3 1020.4 1.6
03/02:00am 5.0 1.5 1.2 76 1.5 NW 9 19 5 10 1020.6 1020.7 1.6
03/01:30am 5.0 0.8 1.4 77 1.4 NW 13 19 7 10 1021.0 1021.1 1.6
03/01:00am 5.5 1.2 1.2 74 1.7 NNW 13 17 7 9 1021.1 1021.2 1.6
03/12:30am 5.5 2.0 1.2 74 1.7 WNW 9 11 5 6 1021.0 1021.1 1.6
03/12:00am 6.0 2.4 0.9 70 2.0 N 9 13 5 7 1021.2 1021.3 1.6
 
Date/Time
EST
Tmp

°C
App
Tmp
°C
Dew
Point
°C
Rel
Hum
%
Delta-T

°C
Wind Press
QNH
hPa
Press
MSL
hPa
Rain
since
9 am
mm
Dir
 
Spd
km/h
Gust
km/h
Spd
kts
Gust
kts
02/11:30pm 5.9 2.3 0.5 68 2.1 NW 9 11 5 6 1021.1 1021.2 1.6
02/11:00pm 5.3 2.3 0.9 73 1.7 W 6 13 3 7 1021.2 1021.3 1.6
02/10:30pm 5.4 2.4 0.8 72 1.8 NNW 6 7 3 4 1021.2 1021.3 1.6
02/10:00pm 5.6 2.5 1.3 74 1.7 WNW 7 13 4 7 1021.3 1021.4 1.6
02/09:30pm 7.0 3.5 1.0 65 2.4 WNW 9 17 5 9 1021.3 1021.4 1.6
02/09:00pm 6.8 2.8 0.7 65 2.4 WSW 11 19 6 10 1021.3 1021.4 1.6
02/08:30pm 6.0 2.6 2.0 75 1.6 WSW 9 17 5 9 1021.2 1021.3 1.6
02/08:00pm 7.3 1.8 0.5 62 2.7 WSW 19 26 10 14 1020.7 1020.8 1.6
02/07:30pm 6.9 2.7 1.7 69 2.1 SW 13 20 7 11 1020.7 1020.8 1.6
02/07:00pm 7.8 2.7 0.8 61 2.8 WSW 17 24 9 13 1020.5 1020.6 1.6
02/06:30pm 7.5 2.1 2.2 69 2.2 SW 20 28 11 15 1020.2 1020.3 1.6
02/06:00pm 7.8 3.0 4.4 79 1.5 SSW 19 28 10 15 1019.9 1020.0 1.6
02/05:30pm 8.0 4.1 5.5 84 1.1 S 15 20 8 11 1019.5 1019.6 1.6
02/05:00pm 8.1 3.9 5.7 85 1.1 S 17 20 9 11 1019.0 1019.1 1.6
02/04:30pm 8.3 3.5 5.6 83 1.2 SSW 20 30 11 16 1018.8 1018.9 1.4
02/04:00pm 8.8 3.9 5.2 78 1.6 S 20 28 11 15 1018.3 1018.3 0.6
02/03:30pm 8.1 2.4 4.9 80 1.4 S 24 37 13 20 1018.4 1018.5 0.6
02/03:00pm 9.2 4.8 5.0 75 1.9 S 17 26 9 14 1018.0 1018.0 0.2
02/02:30pm 10.3 5.2 4.2 66 2.7 SSE 20 32 11 17 1017.6 1017.6 0.2
02/02:00pm 11.5 6.5 3.6 58 3.5 S 19 30 10 16 1017.4 1017.4 0.2
02/01:30pm 11.9 5.7 -0.4 42 5.0 SSW 22 37 12 20 1017.2 1017.2 0.2
02/01:00pm 12.9 7.7 -0.2 40 5.4 SSW 17 26 9 14 1017.3 1017.3 0.2
02/12:30pm 12.5 6.6 -0.8 40 5.4 WSW 20 32 11 17 1017.4 1017.4 0.2
02/12:00pm 12.7 7.3 -1.2 38 5.6 W 17 28 9 15 1017.7 1017.7 0.2
02/11:30am 11.9 5.9 -1.8 38 5.4 SSW 20 37 11 20 1017.7 1017.7 0.0
02/11:00am 11.3 3.7 -2.1 39 5.2 SW 28 41 15 22 1017.7 1017.7 0.0
02/10:30am 11.2 4.0 -2.3 39 5.2 SW 26 44 14 24 1017.6 1017.6 0.0
02/10:20am 11.3 3.7 -2.5 38 5.3 SW 28 46 15 25 1017.7 1017.7 0.0
02/10:00am 11.6 6.3 -0.9 42 5.0 SW 17 28 9 15 1017.5 1017.5 0.0
02/09:30am 10.8 5.6 -0.1 47 4.4 SW 17 22 9 12 1017.4 1017.4 0.0
02/09:00am 9.4 4.1 -0.8 49 4.0 SSW 17 26 9 14 1017.4 1017.4 5.0
02/08:30am 8.9 5.9 0.7 56 3.3 N 6 13 3 7 1017.1 1017.1 5.0
02/08:00am 9.3 5.9 -0.9 49 4.0 SSW 7 19 4 10 1017.0 1017.0 5.0
02/07:30am 8.1 3.9 -0.7 54 3.4 WSW 11 15 6 8 1016.8 1016.8 5.0
02/07:00am 7.3 3.5 -1.1 55 3.2 WSW 9 15 5 8 1016.4 1016.4 5.0
02/06:30am 7.1 2.6 -0.1 60 2.8 SW 13 22 7 12 1016.0 1016.0 5.0
02/06:00am 7.2 2.7 0.0 60 2.8 SSW 13 22 7 12 1015.7 1015.7 5.0
02/05:30am 7.6 1.9 0.6 61 2.8 SSW 20 35 11 19 1015.1 1015.1 5.0
02/05:00am 7.6 2.2 1.2 64 2.6 SSW 19 30 10 16 1014.6 1014.6 5.0
02/04:30am 7.7 1.8 1.6 65 2.5 SSW 22 33 12 18 1014.0 1014.0 5.0
02/04:00am 7.8 2.6 2.3 68 2.3 SSW 19 28 10 15 1013.7 1013.7 5.0
02/03:30am 8.1 1.6 2.4 67 2.4 SSW 26 41 14 22 1013.4 1013.4 5.0
02/03:00am 7.9 3.5 2.9 70 2.1 SSW 15 24 8 13 1013.3 1013.3 5.0
02/02:30am 7.8 2.7 3.1 72 2.0 SSW 19 28 10 15 1013.0 1013.0 5.0
02/02:00am 8.1 2.8 2.9 70 2.2 SSW 20 32 11 17 1012.8 1012.8 5.0
02/01:30am 8.2 2.9 2.8 69 2.3 SSW 20 39 11 21 1012.6 1012.6 5.0
02/01:00am 8.2 2.7 1.9 64 2.6 SSW 20 26 11 14 1012.4 1012.4 5.0
02/12:30am 8.4 3.5 2.2 65 2.6 SSW 17 22 9 12 1012.2 1012.2 5.0
02/12:00am 8.2 2.7 1.9 64 2.6 SSW 20 28 11 15 1012.0 1012.0 5.0
 
Date/Time
EST
Tmp

°C
App
Tmp
°C
Dew
Point
°C
Rel
Hum
%
Delta-T

°C
Wind Press
QNH
hPa
Press
MSL
hPa
Rain
since
9 am
mm
Dir
 
Spd
km/h
Gust
km/h
Spd
kts
Gust
kts
01/11:30pm 8.3 3.6 3.1 70 2.2 SSW 17 26 9 14 1011.9 1011.9 5.0
01/11:00pm 8.1 3.7 4.7 79 1.5 SSW 17 24 9 13 1011.7 1011.7 5.0
01/10:30pm 8.8 3.2 3.2 68 2.4 SSW 22 35 12 19 1011.5 1011.5 5.0
01/10:00pm 8.7 4.0 3.1 68 2.4 SSW 17 28 9 15 1010.7 1010.7 5.0
01/09:30pm 8.5 5.0 5.4 81 1.4 SSW 13 22 7 12 1010.7 1010.7 5.0
01/09:00pm 8.7 4.3 4.9 77 1.7 SSW 17 28 9 15 1009.9 1010.0 5.0
01/08:30pm 8.9 4.8 4.6 74 1.9 S 15 30 8 16 1009.3 1009.4 5.0
01/08:00pm 8.8 4.8 5.0 77 1.7 S 15 24 8 13 1009.0 1009.1 5.0
01/07:30pm 8.8 4.9 5.5 80 1.5 S 15 24 8 13 1008.5 1008.6 5.0
01/07:00pm 8.8 4.0 5.5 80 1.5 S 20 32 11 17 1008.1 1008.2 5.0
01/06:30pm 8.9 4.1 5.8 81 1.4 SSW 20 33 11 18 1007.3 1007.4 5.0
01/06:00pm 9.0 5.3 6.4 84 1.2 SSW 15 24 8 13 1006.9 1007.0 5.0
01/05:30pm 8.9 4.6 7.2 89 0.8 SSW 19 28 10 15 1006.1 1006.2 4.8
01/05:00pm 8.9 4.1 7.2 89 0.8 S 22 32 12 17 1005.6 1005.7 4.6
01/04:30pm 9.3 4.7 6.7 84 1.2 S 20 32 11 17 1004.8 1004.9 4.0
01/04:00pm 9.4 4.9 7.1 85 1.1 SSW 20 35 11 19 1004.1 1004.2 3.8
01/03:30pm 9.6 4.8 7.3 85 1.1 SSW 22 39 12 21 1003.8 1003.9 3.4
01/03:00pm 9.9 4.4 7.4 84 1.2 SSW 26 43 14 23 1003.1 1003.2 3.0
01/02:30pm 10.0 3.4 7.9 87 1.0 SSW 32 52 17 28 1002.5 1002.6 2.4
01/02:24pm 10.2 4.4 7.9 86 1.1 SSW 28 50 15 27 1002.3 1002.4 2.2
01/02:00pm 10.5 5.2 8.3 86 1.1 SSW 26 35 14 19 1002.3 1002.4 1.2
01/01:30pm 10.8 5.2 8.6 86 1.1 SSW 28 43 15 23 1001.6 1001.6 0.4
01/01:18pm 11.2 5.6 8.6 84 1.3 SSW 28 43 15 23 1001.6 1001.6 0.0
01/01:00pm 14.0 11.0 9.1 72 2.5 SW 15 24 8 13 1001.4 1001.4 0.0
01/12:30pm 15.3 11.0 7.7 60 3.8 WNW 20 26 11 14 1001.1 1001.1 0.0
01/12:00pm 17.0 12.5 6.3 49 5.3 NW 19 30 10 16 1000.7 1000.7 0.0
01/11:33am 17.5 10.6 4.8 43 6.1 NNW 30 48 16 26 1000.5 1000.5 0.0
01/11:30am 17.3 10.0 4.5 42 6.1 NNW 32 48 17 26 1000.5 1000.5 0.0
01/11:25am 17.4 11.0 5.0 44 5.9 NNW 28 48 15 26 1000.5 1000.5 0.0
01/11:00am 17.8 10.3 4.7 42 6.3 NNW 33 46 18 25 1000.7 1000.7 0.0
01/10:30am 16.5 10.0 4.8 46 5.6 NNW 28 43 15 23 1000.9 1000.9 0.0
01/10:00am 16.6 11.4 5.4 47 5.4 NNW 22 33 12 18 1001.3 1001.3 0.0
01/09:30am 15.7 10.6 5.8 51 4.8 NNW 22 30 12 16 1001.8 1001.9 0.0
01/09:00am 15.8 9.8 5.4 50 5.0 N 26 39 14 21 1002.1 1002.2 0.0
01/08:30am 15.3 10.5 5.8 53 4.6 N 20 33 11 18 1002.4 1002.5 0.0
01/08:00am 14.6 10.1 5.9 56 4.2 N 19 28 10 15 1002.8 1002.9 0.0
01/07:30am 14.1 10.1 6.5 60 3.7 N 17 26 9 14 1002.9 1003.0 0.0
01/07:00am 13.7 11.2 6.5 62 3.5 N 9 17 5 9 1003.3 1003.4 0.0
01/06:30am 13.6 11.1 6.6 62 3.4 N 9 19 5 10 1003.4 1003.5 0.0
01/06:00am 13.5 11.1 6.9 64 3.2 N 9 17 5 9 1003.6 1003.7 0.0
01/05:30am 14.0 10.7 6.6 61 3.6 N 13 20 7 11 1003.8 1003.9 0.0
01/05:00am 14.0 11.5 6.6 61 3.6 NNE 9 17 5 9 1003.8 1003.9 0.0
01/04:30am 13.7 12.1 6.2 60 3.6 E 4 13 2 7 1004.0 1004.1 0.0
01/04:00am 13.4 10.5 6.3 62 3.4 NNE 11 19 6 10 1004.3 1004.4 0.0
01/03:30am 13.1 9.5 6.7 65 3.1 NNE 15 19 8 10 1004.6 1004.7 0.0
01/03:00am 13.4 8.8 6.6 63 3.3 NNE 20 28 11 15 1004.9 1005.0 0.0
01/02:30am 13.5 10.6 6.4 62 3.4 N 11 19 6 10 1005.3 1005.4 0.0
01/02:00am 13.3 10.0 6.4 63 3.3 NNW 13 19 7 10 1005.9 1006.0 0.0
01/01:30am 14.2 9.4 5.8 57 4.0 N 20 30 11 16 1006.4 1006.5 0.0
01/01:00am 14.4 9.2 5.6 55 4.2 N 22 32 12 17 1006.9 1007.0 0.0
01/12:30am 14.4 9.8 5.6 55 4.2 NNW 19 26 10 14 1007.4 1007.5 0.0
01/12:00am 14.6 10.0 5.8 55 4.2 N 19 26 10 14 1007.5 1007.6 0.0
 
Date/Time
EST
Tmp

°C
App
Tmp
°C
Dew
Point
°C
Rel
Hum
%
Delta-T

°C
Wind Press
QNH
hPa
Press
MSL
hPa
Rain
since
9 am
mm
Dir
 
Spd
km/h
Gust
km/h
Spd
kts
Gust
kts
31/11:30pm 14.5 10.0 6.2 57 4.0 NNW 19 26 10 14 1007.7 1007.8 0.0
31/11:00pm 14.6 9.2 6.3 57 4.0 N 24 33 13 18 1008.1 1008.2 0.0
31/10:30pm 14.7 9.3 6.2 56 4.1 N 24 37 13 20 1008.5 1008.6 0.0
31/10:00pm 14.7 9.3 6.2 56 4.1 NNW 24 33 13 18 1008.8 1008.9 0.0
31/09:30pm 14.4 10.1 6.8 60 3.7 NNW 19 26 10 14 1009.2 1009.3 0.0
31/09:00pm 14.7 9.0 6.7 58 3.9 NNW 26 37 14 20 1009.3 1009.4 0.0
31/08:30pm 14.9 9.2 6.7 58 4.0 NNW 26 37 14 20 1009.5 1009.6 0.0
31/08:00pm 15.0 10.5 6.8 58 4.0 NNW 20 30 11 16 1009.8 1009.9 0.0
31/07:30pm 15.3 12.1 6.7 56 4.2 NNW 13 24 7 13 1010.1 1010.2 0.0
31/07:00pm 15.5 11.6 7.0 57 4.2 NNW 17 26 9 14 1010.2 1010.3 0.0
31/06:30pm 15.9 11.5 7.3 56 4.3 NNW 20 28 11 15 1010.2 1010.3 0.0
31/06:00pm 16.1 12.8 8.0 58 4.1 NNW 15 24 8 13 1010.1 1010.2 0.0
31/05:30pm 16.6 13.6 7.7 55 4.5 N 13 19 7 10 1010.2 1010.3 0.0
31/05:00pm 17.3 12.9 6.6 49 5.3 N 19 26 10 14 1010.2 1010.3 0.0
31/04:30pm 17.7 15.4 7.4 51 5.2 NNE 9 15 5 8 1010.2 1010.3 0.0
31/04:00pm 18.6 15.8 7.1 47 5.8 NNW 11 17 6 9 1010.5 1010.5 0.0
31/03:30pm 18.7 15.7 6.2 44 6.2 N 11 15 6 8 1010.9 1010.9 0.0
31/03:00pm 18.9 16.0 6.5 44 6.2 NNE 11 15 6 8 1011.2 1011.2 0.0
31/02:30pm 19.2 16.0 6.9 44 6.2 N 13 17 7 9 1011.5 1011.5 0.0
31/02:00pm 18.1 14.7 5.9 44 6.0 NNW 13 19 7 10 1011.8 1011.8 0.0
31/01:30pm 16.8 11.2 5.4 47 5.5 NNW 24 32 13 17 1012.1 1012.1 0.0
31/01:00pm 16.6 11.8 5.4 47 5.4 N 20 30 11 16 1012.2 1012.3 0.0
31/12:30pm 16.3 11.0 5.2 47 5.3 NNW 22 32 12 17 1012.8 1012.9 0.0
31/12:00pm 16.6 10.1 4.5 44 5.7 N 28 37 15 20 1013.4 1013.5 0.0
31/11:32am 16.6 9.1 3.7 42 6.0 NNW 32 50 17 27 1013.6 1013.7 0.0
31/11:30am 16.2 9.2 4.2 45 5.6 NNW 30 44 16 24 1013.6 1013.7 0.0
31/11:00am 15.1 7.1 3.8 46 5.2 NNW 35 48 19 26 1014.0 1014.1 0.0
31/10:43am 14.9 8.2 3.8 47 5.1 N 28 48 15 26 1014.2 1014.3 0.0
31/10:30am 14.5 8.2 3.5 47 5.0 N 26 39 14 21 1014.5 1014.6 0.0
31/10:00am 13.9 7.9 3.5 49 4.7 N 24 35 13 19 1015.1 1015.2 0.0

Latest Capital City Observations: Canberra | Sydney | Melbourne | Brisbane | Adelaide | Perth | Hobart | Darwin

Other Formats:

Comma delimited format used in spreadsheet applications
http://www.bom.gov.au/fwo/IDT60901/IDT60901.94970.axf

JavaScript Object Notation format (JSON) in row-major order
http://www.bom.gov.au/fwo/IDT60901/IDT60901.94970.json